createdAt,value
2017-09-26T00:01:55.047Z,11.09
2017-09-26T00:04:23.360Z,11.13
2017-09-26T00:06:51.750Z,11.12
2017-09-26T00:09:20.067Z,11.09
2017-09-26T00:11:48.377Z,11.08
2017-09-26T00:14:17.454Z,11.13
2017-09-26T00:16:45.759Z,11.16
2017-09-26T00:19:14.848Z,11.12
2017-09-26T00:21:43.924Z,11.09
2017-09-26T00:24:13.747Z,11.13
2017-09-26T00:26:42.827Z,11.12
2017-09-26T00:29:11.150Z,11.10
2017-09-26T00:31:39.460Z,11.12
2017-09-26T00:34:07.768Z,11.16
2017-09-26T00:36:36.080Z,11.11
2017-09-26T00:39:04.416Z,11.09
2017-09-26T00:41:33.520Z,11.08
2017-09-26T00:44:01.843Z,11.13
2017-09-26T00:46:30.160Z,11.12
2017-09-26T00:48:58.466Z,11.09
2017-09-26T00:51:27.549Z,10.99
2017-09-26T00:53:56.627Z,10.82
2017-09-26T00:56:24.938Z,10.86
2017-09-26T00:58:53.247Z,10.85
2017-09-26T01:01:21.567Z,10.83
2017-09-26T01:04:04.750Z,10.83
2017-09-26T01:06:58.426Z,10.85
2017-09-26T01:09:26.736Z,10.89
2017-09-26T01:11:55.055Z,10.83
2017-09-26T01:14:23.371Z,10.81
2017-09-26T01:16:51.695Z,10.72
2017-09-26T01:19:20.011Z,10.74
2017-09-26T01:21:48.322Z,10.74
2017-09-26T01:24:16.626Z,10.85
2017-09-26T01:26:44.948Z,10.84
2017-09-26T01:29:13.254Z,10.94
2017-09-26T01:31:41.569Z,10.98
2017-09-26T01:34:09.874Z,10.97
2017-09-26T01:36:38.196Z,10.94
2017-09-26T01:39:07.278Z,10.94
2017-09-26T01:41:35.590Z,10.71
2017-09-26T01:44:03.895Z,10.61
2017-09-26T01:46:32.209Z,10.56
2017-09-26T01:49:02.028Z,10.55
2017-09-26T01:51:31.110Z,10.40
2017-09-26T01:53:59.421Z,10.41
2017-09-26T01:56:29.016Z,10.44
2017-09-26T01:59:10.979Z,10.53
2017-09-26T02:01:39.294Z,10.56
2017-09-26T02:04:07.614Z,10.59
2017-09-26T02:06:35.957Z,10.70
2017-09-26T02:09:04.285Z,10.75
2017-09-26T02:11:32.606Z,10.80
2017-09-26T02:14:00.926Z,10.74
2017-09-26T02:16:29.239Z,10.70
2017-09-26T02:18:58.313Z,10.70
2017-09-26T02:21:26.625Z,10.72
2017-09-26T02:23:54.937Z,10.82
2017-09-26T02:26:23.246Z,10.87
2017-09-26T02:28:51.560Z,10.93
2017-09-26T02:31:19.875Z,10.96
2017-09-26T02:33:48.191Z,10.95
2017-09-26T02:36:16.514Z,10.95
2017-09-26T02:38:44.818Z,10.92
2017-09-26T02:41:13.136Z,10.97
2017-09-26T02:43:41.447Z,10.93
2017-09-26T02:46:09.764Z,10.91
2017-09-26T02:48:38.087Z,10.95
2017-09-26T02:51:06.398Z,11.00
2017-09-26T02:53:34.864Z,11.03
2017-09-26T02:56:03.180Z,11.04
2017-09-26T02:58:31.491Z,11.04
2017-09-26T03:00:59.811Z,11.04
2017-09-26T03:03:28.124Z,11.01
2017-09-26T03:05:57.203Z,11.04
2017-09-26T03:08:25.508Z,11.03
2017-09-26T03:10:53.836Z,11.05
2017-09-26T03:13:22.138Z,10.92
2017-09-26T03:15:50.461Z,10.92
2017-09-26T03:18:18.774Z,10.90
2017-09-26T03:20:47.094Z,10.97
2017-09-26T03:23:15.401Z,11.00
2017-09-26T03:25:43.717Z,10.99
2017-09-26T03:28:12.039Z,10.94
2017-09-26T03:30:40.359Z,10.96
2017-09-26T03:33:08.663Z,10.92
2017-09-26T03:35:36.981Z,11.04
2017-09-26T03:38:05.339Z,11.09
2017-09-26T03:40:33.657Z,11.18
2017-09-26T03:43:01.971Z,11.16
2017-09-26T03:45:31.061Z,11.19
2017-09-26T03:47:59.383Z,11.16
2017-09-26T03:50:27.692Z,11.04
2017-09-26T03:52:56.783Z,11.11
2017-09-26T03:55:25.184Z,11.12
2017-09-26T03:57:53.516Z,11.13
2017-09-26T04:00:21.820Z,11.06
2017-09-26T04:02:50.139Z,11.09
2017-09-26T04:05:18.450Z,11.17
2017-09-26T04:07:46.776Z,11.19
2017-09-26T04:10:15.855Z,11.20
2017-09-26T04:12:44.188Z,11.25
2017-09-26T04:15:12.501Z,11.20
2017-09-26T04:17:40.815Z,11.16
2017-09-26T04:20:09.888Z,11.14
2017-09-26T04:22:38.215Z,11.10
2017-09-26T04:25:06.567Z,11.06
2017-09-26T04:27:34.883Z,11.12
2017-09-26T04:30:03.191Z,11.14
2017-09-26T04:32:31.508Z,11.20
2017-09-26T04:34:59.824Z,11.16
2017-09-26T04:37:28.155Z,11.06
2017-09-26T04:39:56.464Z,11.09
2017-09-26T04:42:24.795Z,11.13
2017-09-26T04:44:53.874Z,11.10
2017-09-26T04:47:22.194Z,11.09
2017-09-26T04:49:50.508Z,11.16
2017-09-26T04:52:18.824Z,11.15
2017-09-26T04:54:47.904Z,11.12
2017-09-26T04:57:17.098Z,11.15
2017-09-26T04:59:45.407Z,11.24
2017-09-26T05:02:13.723Z,11.62
2017-09-26T05:04:41.975Z,11.51
2017-09-26T05:07:10.255Z,11.42
2017-09-26T05:09:38.524Z,11.50
2017-09-26T05:12:06.788Z,11.43
2017-09-26T05:14:35.039Z,11.41
2017-09-26T05:17:04.080Z,11.29
2017-09-26T05:19:32.344Z,11.24
2017-09-26T05:22:00.611Z,11.33
2017-09-26T05:24:28.886Z,11.32
2017-09-26T05:26:57.152Z,11.35
2017-09-26T05:29:26.179Z,11.38
2017-09-26T05:31:54.450Z,11.38
2017-09-26T05:34:22.721Z,11.48
2017-09-26T05:36:51.000Z,11.37
2017-09-26T05:39:19.261Z,11.47
2017-09-26T05:41:47.532Z,11.37
2017-09-26T05:44:15.791Z,11.28
2017-09-26T05:46:44.831Z,11.34
2017-09-26T05:49:13.098Z,11.34
2017-09-26T05:51:41.369Z,11.34
2017-09-26T05:54:09.632Z,11.41
2017-09-26T05:56:37.903Z,11.41
2017-09-26T05:59:06.174Z,11.46
2017-09-26T06:01:34.445Z,11.58
2017-09-26T06:04:02.700Z,11.58
2017-09-26T06:06:31.034Z,11.58
2017-09-26T06:08:59.289Z,11.59
2017-09-26T06:11:27.571Z,11.66
2017-09-26T06:13:55.830Z,11.58
2017-09-26T06:16:24.104Z,11.62
2017-09-26T06:18:53.128Z,11.67
2017-09-26T06:21:21.401Z,11.66
2017-09-26T06:23:49.658Z,11.69
2017-09-26T06:26:17.931Z,11.81
2017-09-26T06:28:46.203Z,11.91
2017-09-26T06:31:15.240Z,12.03
2017-09-26T06:33:43.506Z,12.13
2017-09-26T06:36:11.760Z,12.15
2017-09-26T06:38:40.022Z,12.06
2017-09-26T06:41:09.053Z,12.04
2017-09-26T06:43:37.417Z,12.04
2017-09-26T06:46:05.674Z,12.10
2017-09-26T06:48:33.948Z,12.22
2017-09-26T06:51:02.218Z,12.21
2017-09-26T06:53:31.253Z,12.23
2017-09-26T06:55:59.522Z,12.29
2017-09-26T06:58:27.797Z,12.37
2017-09-26T07:00:56.059Z,12.44
2017-09-26T07:03:24.330Z,12.52
2017-09-26T07:05:52.591Z,12.66
2017-09-26T07:08:20.881Z,12.47
2017-09-26T07:10:49.146Z,12.58
2017-09-26T07:13:17.420Z,12.82
2017-09-26T07:15:45.687Z,12.88
2017-09-26T07:18:14.733Z,12.95
2017-09-26T07:20:42.992Z,12.91
2017-09-26T07:23:11.265Z,12.99
2017-09-26T07:25:39.523Z,13.06
2017-09-26T07:28:07.795Z,13.04
2017-09-26T07:30:36.816Z,12.91
2017-09-26T07:33:05.083Z,12.73
2017-09-26T07:35:33.344Z,12.81
2017-09-26T07:38:01.615Z,12.80
2017-09-26T07:40:29.875Z,12.94
2017-09-26T07:42:58.143Z,12.86
2017-09-26T07:45:27.180Z,12.87
2017-09-26T07:47:55.446Z,12.78
2017-09-26T07:50:23.708Z,12.66
2017-09-26T07:52:52.754Z,12.86
2017-09-26T07:55:21.016Z,13.00
2017-09-26T07:57:49.271Z,12.97
2017-09-26T08:00:17.538Z,13.22
2017-09-26T08:02:45.808Z,13.27
2017-09-26T08:05:14.651Z,13.35
2017-09-26T08:07:42.998Z,13.29
2017-09-26T08:10:11.259Z,13.41
2017-09-26T08:12:39.517Z,13.69
2017-09-26T08:15:08.556Z,13.43
2017-09-26T08:17:36.819Z,13.33
2017-09-26T08:20:05.092Z,13.29
2017-09-26T08:22:33.352Z,13.46
2017-09-26T08:25:01.619Z,13.67
2017-09-26T08:27:30.638Z,13.80
2017-09-26T08:29:58.910Z,14.00
2017-09-26T08:32:27.171Z,14.11
2017-09-26T08:34:55.432Z,14.01
2017-09-26T08:37:23.700Z,14.11
2017-09-26T08:39:52.722Z,13.98
2017-09-26T08:42:20.991Z,13.74
2017-09-26T08:44:49.246Z,13.74
2017-09-26T08:47:18.279Z,14.00
2017-09-26T08:49:46.543Z,14.35
2017-09-26T08:52:14.806Z,14.23
2017-09-26T08:54:43.071Z,14.10
2017-09-26T08:57:12.102Z,14.39
2017-09-26T08:59:40.357Z,14.56
2017-09-26T09:02:08.618Z,14.66
2017-09-26T09:04:37.633Z,14.43
2017-09-26T09:07:05.895Z,14.84
2017-09-26T09:09:34.163Z,15.09
2017-09-26T09:12:03.205Z,15.11
2017-09-26T09:14:31.480Z,15.12
2017-09-26T09:16:59.746Z,15.43
2017-09-26T09:19:28.002Z,15.79
2017-09-26T09:21:56.263Z,15.49
2017-09-26T09:24:25.290Z,15.60
2017-09-26T09:26:53.547Z,15.59
2017-09-26T09:29:21.825Z,15.79
2017-09-26T09:31:50.074Z,15.81
2017-09-26T09:34:19.107Z,15.63
2017-09-26T09:36:47.368Z,16.10
2017-09-26T09:39:15.642Z,16.21
2017-09-26T09:41:43.925Z,16.11
2017-09-26T09:44:12.187Z,16.45
2017-09-26T09:46:40.439Z,16.28
2017-09-26T09:49:09.502Z,16.45
2017-09-26T09:51:38.491Z,16.73
2017-09-26T09:54:06.767Z,16.81
2017-09-26T09:56:35.020Z,16.95
2017-09-26T09:59:04.052Z,17.25
2017-09-26T10:01:32.304Z,16.74
2017-09-26T10:04:00.563Z,17.22
2017-09-26T10:06:29.591Z,17.46
2017-09-26T10:08:57.855Z,16.86
2017-09-26T10:11:26.114Z,17.43
2017-09-26T10:13:55.137Z,16.90
2017-09-26T10:16:23.390Z,17.09
2017-09-26T10:18:51.655Z,17.81
2017-09-26T10:21:20.679Z,17.81
2017-09-26T10:23:48.935Z,17.45
2017-09-26T10:26:17.198Z,17.57
2017-09-26T10:28:46.451Z,17.85
2017-09-26T10:31:14.703Z,18.64
2017-09-26T10:33:42.979Z,19.07
2017-09-26T10:36:11.234Z,18.87
2017-09-26T10:38:39.506Z,18.80
2017-09-26T10:41:07.761Z,19.04
2017-09-26T10:43:37.310Z,18.60
2017-09-26T10:46:05.567Z,18.85
2017-09-26T10:48:33.834Z,19.34
2017-09-26T10:51:02.942Z,19.55
2017-09-26T10:53:31.215Z,19.31
2017-09-26T10:55:59.480Z,20.40
2017-09-26T10:58:28.523Z,20.13
2017-09-26T11:00:56.778Z,19.86
2017-09-26T11:03:25.045Z,19.56
2017-09-26T11:05:53.306Z,19.84
2017-09-26T11:08:21.572Z,19.78
2017-09-26T11:10:50.592Z,18.74
2017-09-26T11:13:18.844Z,18.20
2017-09-26T11:15:47.098Z,19.19
2017-09-26T11:18:16.125Z,19.73
2017-09-26T11:20:44.401Z,20.58
2017-09-26T11:23:12.660Z,19.25
2017-09-26T11:25:41.694Z,19.97
2017-09-26T11:28:09.954Z,19.08
2017-09-26T11:30:38.215Z,19.69
2017-09-26T11:33:06.474Z,19.76
2017-09-26T11:35:35.500Z,19.75
2017-09-26T11:38:03.762Z,20.93
2017-09-26T11:40:32.038Z,20.40
2017-09-26T11:43:00.292Z,20.31
2017-09-26T11:45:29.318Z,19.28
2017-09-26T11:47:57.570Z,19.79
2017-09-26T11:50:26.599Z,20.09
2017-09-26T11:52:54.862Z,21.47
2017-09-26T11:55:23.129Z,19.96
2017-09-26T11:57:51.383Z,20.32
2017-09-26T12:00:20.408Z,20.99
2017-09-26T12:02:48.672Z,19.87
2017-09-26T12:05:16.935Z,19.78
2017-09-26T12:07:45.957Z,22.14
2017-09-26T12:10:14.229Z,22.67
2017-09-26T12:12:42.490Z,23.90
2017-09-26T12:15:10.765Z,23.64
2017-09-26T12:17:39.018Z,23.65
2017-09-26T12:20:08.056Z,22.90
2017-09-26T12:22:36.307Z,22.96
2017-09-26T12:25:04.567Z,22.09
2017-09-26T12:27:33.588Z,20.56
2017-09-26T12:30:01.855Z,21.39
2017-09-26T12:32:30.109Z,19.99
2017-09-26T12:34:59.143Z,23.37
2017-09-26T12:37:27.517Z,22.61
2017-09-26T12:39:55.782Z,22.59
2017-09-26T12:42:24.038Z,20.39
2017-09-26T12:44:53.072Z,20.35
2017-09-26T12:47:21.329Z,20.31
2017-09-26T12:49:49.592Z,20.84
2017-09-26T12:52:17.848Z,20.41
2017-09-26T12:54:46.880Z,20.49
2017-09-26T12:57:15.135Z,20.46
2017-09-26T12:59:43.395Z,20.28
2017-09-26T13:02:12.422Z,20.90
2017-09-26T13:04:40.682Z,20.43
2017-09-26T13:07:08.952Z,20.69
2017-09-26T13:09:37.979Z,19.89
2017-09-26T13:12:06.232Z,19.97
2017-09-26T13:14:34.495Z,20.08
2017-09-26T13:17:03.519Z,20.00
2017-09-26T13:19:31.790Z,20.30
2017-09-26T13:22:00.045Z,21.40
2017-09-26T13:24:28.296Z,20.57
2017-09-26T13:26:57.344Z,20.49
2017-09-26T13:29:25.596Z,21.97
2017-09-26T13:31:53.860Z,20.66
2017-09-26T13:34:22.879Z,21.24
2017-09-26T13:36:51.159Z,20.09
2017-09-26T13:39:19.410Z,20.00
2017-09-26T13:41:47.674Z,19.65
2017-09-26T13:44:16.693Z,19.60
2017-09-26T13:46:44.957Z,19.83
2017-09-26T13:49:13.228Z,19.91
2017-09-26T13:51:42.255Z,20.00
2017-09-26T13:54:10.511Z,20.32
2017-09-26T13:56:38.780Z,20.11
2017-09-26T13:59:07.030Z,20.54
2017-09-26T14:01:36.070Z,23.51
2017-09-26T14:04:04.329Z,24.09
2017-09-26T14:06:32.591Z,23.48
2017-09-26T14:09:00.848Z,22.95
2017-09-26T14:11:29.884Z,22.38
2017-09-26T14:13:58.144Z,23.13
2017-09-26T14:16:26.398Z,23.56
2017-09-26T14:18:55.414Z,23.74
2017-09-26T14:21:23.679Z,24.71
2017-09-26T14:23:51.938Z,23.97
2017-09-26T14:26:20.201Z,24.84
2017-09-26T14:28:48.451Z,23.70
2017-09-26T14:31:16.719Z,21.21
2017-09-26T14:33:44.977Z,22.76
2017-09-26T14:36:13.245Z,22.96
2017-09-26T14:38:41.499Z,23.83
2017-09-26T14:41:10.537Z,22.57
2017-09-26T14:43:38.788Z,21.42
2017-09-26T14:46:07.056Z,21.02
2017-09-26T14:48:35.308Z,22.34
2017-09-26T14:51:04.342Z,23.40
2017-09-26T14:53:32.596Z,23.68
2017-09-26T14:56:01.704Z,23.45
2017-09-26T14:58:29.969Z,21.57
2017-09-26T15:00:59.001Z,21.81
2017-09-26T15:03:27.256Z,22.67
2017-09-26T15:05:55.514Z,23.70
2017-09-26T15:08:23.777Z,22.32
2017-09-26T15:10:52.814Z,21.25
2017-09-26T15:13:21.075Z,20.55
2017-09-26T15:15:49.331Z,22.84
2017-09-26T15:18:17.594Z,23.22
2017-09-26T15:20:46.624Z,22.68
2017-09-26T15:23:14.879Z,22.83
2017-09-26T15:25:43.141Z,21.51
2017-09-26T15:28:12.160Z,20.65
2017-09-26T15:30:40.423Z,21.77
2017-09-26T15:33:08.691Z,22.59
2017-09-26T15:35:37.724Z,22.63
2017-09-26T15:38:05.982Z,21.76
2017-09-26T15:40:34.250Z,20.21
2017-09-26T15:43:02.510Z,20.21
2017-09-26T15:45:31.535Z,20.10
2017-09-26T15:47:59.800Z,20.66
2017-09-26T15:50:28.057Z,20.34
2017-09-26T15:52:57.163Z,20.41
2017-09-26T15:55:25.414Z,20.49
2017-09-26T15:57:54.448Z,19.35
2017-09-26T16:00:22.704Z,19.02
2017-09-26T16:02:50.976Z,18.52
2017-09-26T16:05:19.230Z,18.63
2017-09-26T16:07:48.263Z,18.39
2017-09-26T16:10:16.524Z,18.09
2017-09-26T16:12:44.792Z,17.52
2017-09-26T16:15:13.807Z,17.76
2017-09-26T16:17:42.072Z,17.64
2017-09-26T16:20:10.326Z,16.87
2017-09-26T16:22:39.356Z,17.07
2017-09-26T16:25:07.617Z,17.17
2017-09-26T16:27:35.883Z,17.06
2017-09-26T16:30:04.144Z,17.05
2017-09-26T16:32:33.170Z,17.03
2017-09-26T16:35:01.428Z,17.08
2017-09-26T16:37:29.691Z,16.77
2017-09-26T16:39:58.714Z,16.71
2017-09-26T16:42:26.976Z,16.64
2017-09-26T16:44:55.228Z,16.68
2017-09-26T16:47:24.272Z,16.70
2017-09-26T16:49:52.528Z,16.70
2017-09-26T16:52:20.797Z,16.71
2017-09-26T16:54:49.052Z,16.59
2017-09-26T16:57:18.082Z,16.50
2017-09-26T16:59:46.339Z,16.30
2017-09-26T17:02:14.603Z,16.20
2017-09-26T17:04:43.631Z,16.11
2017-09-26T17:07:11.896Z,15.98
2017-09-26T17:09:40.174Z,15.84
2017-09-26T17:12:08.442Z,15.80
2017-09-26T17:14:36.701Z,15.76
2017-09-26T17:17:04.974Z,15.54
2017-09-26T17:19:34.006Z,15.58
2017-09-26T17:22:02.276Z,15.52
2017-09-26T17:24:30.520Z,15.49
2017-09-26T17:26:59.550Z,15.56
2017-09-26T17:29:27.815Z,15.65
2017-09-26T17:31:56.089Z,15.61
2017-09-26T17:34:24.346Z,15.63
2017-09-26T17:36:52.615Z,15.60
2017-09-26T17:39:21.631Z,15.52
2017-09-26T17:41:49.899Z,15.47
2017-09-26T17:44:18.156Z,15.42
2017-09-26T17:46:47.274Z,15.32
2017-09-26T17:49:15.539Z,15.23
2017-09-26T17:51:43.803Z,15.11
2017-09-26T17:54:12.834Z,15.08
2017-09-26T17:56:41.099Z,15.12
2017-09-26T17:59:09.367Z,15.12
2017-09-26T18:01:37.632Z,15.06
2017-09-26T18:04:05.887Z,15.00
2017-09-26T18:06:34.925Z,15.00
2017-09-26T18:09:03.181Z,14.77
2017-09-26T18:11:31.447Z,14.85
2017-09-26T18:13:59.707Z,14.89
2017-09-26T18:16:28.740Z,14.88
2017-09-26T18:18:56.999Z,14.99
2017-09-26T18:21:25.266Z,14.87
2017-09-26T18:23:54.347Z,14.78
2017-09-26T18:26:22.655Z,14.78
2017-09-26T18:28:50.902Z,14.75
2017-09-26T18:31:19.946Z,14.77
2017-09-26T18:33:48.210Z,14.73
2017-09-26T18:36:16.518Z,14.69
2017-09-26T18:38:44.780Z,14.67
2017-09-26T18:41:13.085Z,14.68
2017-09-26T18:43:41.413Z,14.67
2017-09-26T18:46:09.719Z,14.65
2017-09-26T18:48:38.033Z,14.54
2017-09-26T18:51:07.099Z,14.47
2017-09-26T18:53:35.406Z,14.47
2017-09-26T18:56:04.475Z,14.55
2017-09-26T18:58:32.843Z,14.47
2017-09-26T19:01:01.292Z,14.48
2017-09-26T19:03:29.786Z,14.46
2017-09-26T19:05:58.095Z,14.42
2017-09-26T19:08:26.403Z,14.38
2017-09-26T19:11:01.690Z,14.34
2017-09-26T19:13:30.257Z,14.29
2017-09-26T19:15:58.602Z,14.18
2017-09-26T19:18:28.099Z,14.13
2017-09-26T19:20:57.170Z,14.12
2017-09-26T19:23:25.482Z,14.04
2017-09-26T19:25:54.554Z,14.00
2017-09-26T19:28:23.635Z,13.94
2017-09-26T19:30:51.884Z,13.85
2017-09-26T19:33:20.202Z,13.82
2017-09-26T19:35:49.280Z,13.78
2017-09-26T19:38:17.547Z,13.77
2017-09-26T19:40:45.851Z,13.68
2017-09-26T19:43:14.163Z,13.62
2017-09-26T19:45:42.467Z,13.51
2017-09-26T19:48:10.784Z,13.50
2017-09-26T19:50:39.853Z,13.51
2017-09-26T19:53:08.387Z,13.48
2017-09-26T19:55:36.687Z,13.47
2017-09-26T19:58:05.074Z,13.47
2017-09-26T20:00:33.374Z,13.38
2017-09-26T20:03:01.682Z,13.42
2017-09-26T20:05:30.743Z,13.36
2017-09-26T20:07:59.050Z,13.32
2017-09-26T20:10:28.124Z,13.32
2017-09-26T20:12:57.939Z,13.32
2017-09-26T20:15:26.244Z,13.28
2017-09-26T20:17:57.958Z,13.24
2017-09-26T20:20:26.275Z,13.20
2017-09-26T20:22:55.304Z,13.16
2017-09-26T20:25:23.570Z,13.13
2017-09-26T20:27:51.835Z,13.11
2017-09-26T20:30:20.147Z,13.16
2017-09-26T20:32:48.411Z,13.10
2017-09-26T20:35:16.737Z,13.04
2017-09-26T20:37:45.295Z,13.00
2017-09-26T20:40:13.587Z,12.99
2017-09-26T20:42:41.856Z,12.95
2017-09-26T20:45:11.624Z,12.92
2017-09-26T20:47:39.886Z,12.90
2017-09-26T20:50:08.146Z,12.81
2017-09-26T20:52:36.431Z,12.82
2017-09-26T20:55:04.695Z,12.83
2017-09-26T20:57:32.971Z,12.74
2017-09-26T21:00:01.237Z,12.72
2017-09-26T21:02:29.511Z,12.69
2017-09-26T21:04:58.551Z,12.67
2017-09-26T21:07:26.907Z,12.66
2017-09-26T21:09:55.172Z,12.64
2017-09-26T21:12:23.438Z,12.59
2017-09-26T21:14:52.539Z,12.54
2017-09-26T21:17:21.707Z,12.52
2017-09-26T21:19:49.971Z,12.48
2017-09-26T21:22:18.227Z,12.44
2017-09-26T21:24:46.564Z,12.41
2017-09-26T21:27:15.580Z,12.45
2017-09-26T21:29:44.096Z,12.42
2017-09-26T21:32:12.364Z,12.44
2017-09-26T21:34:40.629Z,12.45
2017-09-26T21:37:08.883Z,12.38
2017-09-26T21:39:37.151Z,12.38
2017-09-26T21:42:05.420Z,12.35
2017-09-26T21:44:33.686Z,12.36
2017-09-26T21:47:02.705Z,12.34
2017-09-26T21:49:30.968Z,12.33
2017-09-26T21:51:59.226Z,12.30
2017-09-26T21:54:28.259Z,12.24
2017-09-26T21:56:56.623Z,12.22
2017-09-26T21:59:24.887Z,12.19
2017-09-26T22:01:53.156Z,12.22
2017-09-26T22:04:26.045Z,12.28
2017-09-26T22:06:54.296Z,12.23
2017-09-26T22:09:22.588Z,12.30
2017-09-26T22:11:51.620Z,12.27
2017-09-26T22:14:19.908Z,12.31
2017-09-26T22:16:48.227Z,12.36
2017-09-26T22:19:17.268Z,12.37
2017-09-26T22:21:45.523Z,12.36
2017-09-26T22:24:13.796Z,12.41
2017-09-26T22:26:42.068Z,12.41
2017-09-26T22:29:10.330Z,12.40
2017-09-26T22:31:39.353Z,12.39
2017-09-26T22:34:07.620Z,12.35
2017-09-26T22:36:35.878Z,12.33
2017-09-26T22:39:04.914Z,12.35
2017-09-26T22:41:33.204Z,12.41
2017-09-26T22:44:01.471Z,12.44
2017-09-26T22:46:29.840Z,12.41
2017-09-26T22:48:58.091Z,12.38
2017-09-26T22:51:26.344Z,12.35
2017-09-26T22:53:55.380Z,12.32
2017-09-26T22:56:23.630Z,12.28
2017-09-26T22:58:51.941Z,12.24
2017-09-26T23:01:20.201Z,12.19
2017-09-26T23:03:48.474Z,12.21
2017-09-26T23:06:16.723Z,12.17
2017-09-26T23:08:45.759Z,12.10
2017-09-26T23:11:14.018Z,12.11
2017-09-26T23:13:42.278Z,11.96
2017-09-26T23:16:10.535Z,11.91
2017-09-26T23:18:39.575Z,11.82
2017-09-26T23:21:07.831Z,11.81
2017-09-26T23:23:36.336Z,11.76
2017-09-26T23:26:04.627Z,11.65
2017-09-26T23:28:32.951Z,11.54
2017-09-26T23:31:01.980Z,11.43
2017-09-26T23:33:30.255Z,11.38
2017-09-26T23:35:58.508Z,11.41
2017-09-26T23:38:26.775Z,11.42
2017-09-26T23:40:55.039Z,11.37
2017-09-26T23:43:24.102Z,11.32
2017-09-26T23:45:52.378Z,11.20
2017-09-26T23:48:20.655Z,11.26
2017-09-26T23:50:48.916Z,11.37
2017-09-26T23:53:17.186Z,11.17
2017-09-26T23:55:45.448Z,11.07
2017-09-26T23:58:13.719Z,11.04
